sensor_id;sensor_type;location;lat;lon;timestamp;temperature;humidity
14755;DHT22;7469;50.906;6.952;2023-04-06T00:02:14;4.00;55.20
14755;DHT22;7469;50.906;6.952;2023-04-06T00:04:42;4.00;56.00
14755;DHT22;7469;50.906;6.952;2023-04-06T00:07:11;3.90;57.00
14755;DHT22;7469;50.906;6.952;2023-04-06T00:09:39;3.90;57.80
14755;DHT22;7469;50.906;6.952;2023-04-06T00:12:07;3.80;58.80
14755;DHT22;7469;50.906;6.952;2023-04-06T00:14:36;3.80;59.60
14755;DHT22;7469;50.906;6.952;2023-04-06T00:17:04;3.80;60.20
14755;DHT22;7469;50.906;6.952;2023-04-06T00:19:32;3.70;61.10
14755;DHT22;7469;50.906;6.952;2023-04-06T00:22:00;3.70;61.90
14755;DHT22;7469;50.906;6.952;2023-04-06T00:24:30;3.70;62.60
14755;DHT22;7469;50.906;6.952;2023-04-06T00:26:58;3.70;63.50
14755;DHT22;7469;50.906;6.952;2023-04-06T00:29:26;3.70;64.40
14755;DHT22;7469;50.906;6.952;2023-04-06T00:31:54;3.70;65.20
14755;DHT22;7469;50.906;6.952;2023-04-06T00:34:22;3.70;66.00
14755;DHT22;7469;50.906;6.952;2023-04-06T00:36:50;3.70;67.00
14755;DHT22;7469;50.906;6.952;2023-04-06T00:39:18;3.70;67.90
14755;DHT22;7469;50.906;6.952;2023-04-06T00:41:50;3.60;68.50
14755;DHT22;7469;50.906;6.952;2023-04-06T00:44:19;3.60;69.20
14755;DHT22;7469;50.906;6.952;2023-04-06T00:46:47;3.60;70.00
14755;DHT22;7469;50.906;6.952;2023-04-06T00:49:15;3.60;70.60
14755;DHT22;7469;50.906;6.952;2023-04-06T00:51:43;3.60;71.10
14755;DHT22;7469;50.906;6.952;2023-04-06T00:54:11;3.60;71.60
14755;DHT22;7469;50.906;6.952;2023-04-06T00:56:41;3.60;72.30
14755;DHT22;7469;50.906;6.952;2023-04-06T00:59:11;3.60;72.80
14755;DHT22;7469;50.906;6.952;2023-04-06T01:01:40;3.60;73.40
14755;DHT22;7469;50.906;6.952;2023-04-06T01:04:08;3.50;73.80
14755;DHT22;7469;50.906;6.952;2023-04-06T01:06:36;3.50;74.20
14755;DHT22;7469;50.906;6.952;2023-04-06T01:09:04;3.50;74.60
14755;DHT22;7469;50.906;6.952;2023-04-06T01:11:33;3.50;75.00
14755;DHT22;7469;50.906;6.952;2023-04-06T01:14:01;3.50;75.50
14755;DHT22;7469;50.906;6.952;2023-04-06T01:16:30;3.50;75.80
14755;DHT22;7469;50.906;6.952;2023-04-06T01:18:58;3.50;76.20
14755;DHT22;7469;50.906;6.952;2023-04-06T01:21:26;3.50;76.70
14755;DHT22;7469;50.906;6.952;2023-04-06T01:23:56;3.50;77.20
14755;DHT22;7469;50.906;6.952;2023-04-06T01:26:24;3.50;77.70
14755;DHT22;7469;50.906;6.952;2023-04-06T01:28:53;3.40;78.00
14755;DHT22;7469;50.906;6.952;2023-04-06T01:31:21;3.40;78.40
14755;DHT22;7469;50.906;6.952;2023-04-06T01:33:50;3.40;78.80
14755;DHT22;7469;50.906;6.952;2023-04-06T01:36:18;3.40;79.20
14755;DHT22;7469;50.906;6.952;2023-04-06T01:38:46;3.40;79.60
14755;DHT22;7469;50.906;6.952;2023-04-06T01:41:15;3.40;80.00
14755;DHT22;7469;50.906;6.952;2023-04-06T01:43:44;3.40;80.50
14755;DHT22;7469;50.906;6.952;2023-04-06T01:46:12;3.40;81.60
14755;DHT22;7469;50.906;6.952;2023-04-06T01:48:40;3.30;81.10
14755;DHT22;7469;50.906;6.952;2023-04-06T01:51:08;3.30;81.50
14755;DHT22;7469;50.906;6.952;2023-04-06T01:53:36;3.30;81.90
14755;DHT22;7469;50.906;6.952;2023-04-06T01:56:05;3.30;82.30
14755;DHT22;7469;50.906;6.952;2023-04-06T01:58:35;3.20;82.60
14755;DHT22;7469;50.906;6.952;2023-04-06T02:01:03;3.20;83.00
14755;DHT22;7469;50.906;6.952;2023-04-06T02:03:31;3.20;83.40
14755;DHT22;7469;50.906;6.952;2023-04-06T02:05:59;3.20;83.70
14755;DHT22;7469;50.906;6.952;2023-04-06T02:08:27;3.20;84.00
14755;DHT22;7469;50.906;6.952;2023-04-06T02:10:55;3.10;84.20
14755;DHT22;7469;50.906;6.952;2023-04-06T02:13:23;3.10;84.70
14755;DHT22;7469;50.906;6.952;2023-04-06T02:15:53;3.10;85.10
14755;DHT22;7469;50.906;6.952;2023-04-06T02:18:21;3.10;85.50
14755;DHT22;7469;50.906;6.952;2023-04-06T02:20:49;3.00;85.70
14755;DHT22;7469;50.906;6.952;2023-04-06T02:23:17;3.00;86.00
14755;DHT22;7469;50.906;6.952;2023-04-06T02:25:45;3.00;86.30
14755;DHT22;7469;50.906;6.952;2023-04-06T02:28:13;3.00;86.50
14755;DHT22;7469;50.906;6.952;2023-04-06T02:30:42;3.00;86.80
14755;DHT22;7469;50.906;6.952;2023-04-06T02:33:11;3.00;87.10
14755;DHT22;7469;50.906;6.952;2023-04-06T02:35:39;2.90;87.30
14755;DHT22;7469;50.906;6.952;2023-04-06T02:38:07;2.90;87.60
14755;DHT22;7469;50.906;6.952;2023-04-06T02:40:35;2.90;88.00
14755;DHT22;7469;50.906;6.952;2023-04-06T02:43:03;2.90;88.30
14755;DHT22;7469;50.906;6.952;2023-04-06T02:45:31;2.90;88.60
14755;DHT22;7469;50.906;6.952;2023-04-06T02:47:59;2.80;88.90
14755;DHT22;7469;50.906;6.952;2023-04-06T02:50:29;2.80;89.20
14755;DHT22;7469;50.906;6.952;2023-04-06T02:52:57;2.80;89.50
14755;DHT22;7469;50.906;6.952;2023-04-06T02:55:25;2.80;89.70
14755;DHT22;7469;50.906;6.952;2023-04-06T02:57:53;2.80;90.00
14755;DHT22;7469;50.906;6.952;2023-04-06T03:00:22;2.80;90.10
14755;DHT22;7469;50.906;6.952;2023-04-06T03:02:50;2.70;90.10
14755;DHT22;7469;50.906;6.952;2023-04-06T03:05:18;2.70;90.30
14755;DHT22;7469;50.906;6.952;2023-04-06T03:07:48;2.70;90.40
14755;DHT22;7469;50.906;6.952;2023-04-06T03:10:16;2.70;90.60
14755;DHT22;7469;50.906;6.952;2023-04-06T03:12:44;2.70;90.60
14755;DHT22;7469;50.906;6.952;2023-04-06T03:15:12;2.70;90.80
14755;DHT22;7469;50.906;6.952;2023-04-06T03:17:41;2.60;90.90
14755;DHT22;7469;50.906;6.952;2023-04-06T03:20:10;2.60;91.10
14755;DHT22;7469;50.906;6.952;2023-04-06T03:22:38;2.60;91.30
14755;DHT22;7469;50.906;6.952;2023-04-06T03:25:08;2.60;91.40
14755;DHT22;7469;50.906;6.952;2023-04-06T03:27:36;2.60;91.50
14755;DHT22;7469;50.906;6.952;2023-04-06T03:30:06;2.50;91.70
14755;DHT22;7469;50.906;6.952;2023-04-06T03:32:34;2.50;91.80
14755;DHT22;7469;50.906;6.952;2023-04-06T03:35:02;2.50;92.00
14755;DHT22;7469;50.906;6.952;2023-04-06T03:37:30;2.50;92.10
14755;DHT22;7469;50.906;6.952;2023-04-06T03:39:58;2.40;92.20
14755;DHT22;7469;50.906;6.952;2023-04-06T03:42:28;2.40;92.40
14755;DHT22;7469;50.906;6.952;2023-04-06T03:44:56;2.40;92.60
14755;DHT22;7469;50.906;6.952;2023-04-06T03:47:24;2.40;92.60
14755;DHT22;7469;50.906;6.952;2023-04-06T03:49:52;2.40;92.80
14755;DHT22;7469;50.906;6.952;2023-04-06T03:52:20;2.30;93.00
14755;DHT22;7469;50.906;6.952;2023-04-06T03:54:49;2.30;93.10
14755;DHT22;7469;50.906;6.952;2023-04-06T03:57:17;2.30;93.30
14755;DHT22;7469;50.906;6.952;2023-04-06T03:59:47;2.30;93.40
14755;DHT22;7469;50.906;6.952;2023-04-06T04:02:15;2.30;93.60
14755;DHT22;7469;50.906;6.952;2023-04-06T04:04:43;2.30;93.70
14755;DHT22;7469;50.906;6.952;2023-04-06T04:07:11;2.20;93.90
14755;DHT22;7469;50.906;6.952;2023-04-06T04:09:39;2.20;94.00
14755;DHT22;7469;50.906;6.952;2023-04-06T04:12:07;2.20;94.30
14755;DHT22;7469;50.906;6.952;2023-04-06T04:14:35;2.20;94.40
14755;DHT22;7469;50.906;6.952;2023-04-06T04:17:04;2.20;94.60
14755;DHT22;7469;50.906;6.952;2023-04-06T04:19:33;2.10;94.60
14755;DHT22;7469;50.906;6.952;2023-04-06T04:22:01;2.10;94.80
14755;DHT22;7469;50.906;6.952;2023-04-06T04:24:31;2.10;95.00
14755;DHT22;7469;50.906;6.952;2023-04-06T04:26:59;2.10;95.00
14755;DHT22;7469;50.906;6.952;2023-04-06T04:29:28;2.10;95.20
14755;DHT22;7469;50.906;6.952;2023-04-06T04:31:56;2.10;95.40
14755;DHT22;7469;50.906;6.952;2023-04-06T04:34:26;2.10;95.40
14755;DHT22;7469;50.906;6.952;2023-04-06T04:36:54;2.10;95.70
14755;DHT22;7469;50.906;6.952;2023-04-06T04:39:22;2.10;95.80
14755;DHT22;7469;50.906;6.952;2023-04-06T04:41:50;2.10;96.00
14755;DHT22;7469;50.906;6.952;2023-04-06T04:44:18;2.10;96.40
14755;DHT22;7469;50.906;6.952;2023-04-06T04:46:47;2.00;96.10
14755;DHT22;7469;50.906;6.952;2023-04-06T04:49:15;2.00;96.20
14755;DHT22;7469;50.906;6.952;2023-04-06T04:51:45;2.00;96.40
14755;DHT22;7469;50.906;6.952;2023-04-06T04:54:19;2.00;96.50
14755;DHT22;7469;50.906;6.952;2023-04-06T04:56:47;2.00;96.60
14755;DHT22;7469;50.906;6.952;2023-04-06T04:59:16;2.00;96.70
14755;DHT22;7469;50.906;6.952;2023-04-06T05:01:46;2.00;96.90
14755;DHT22;7469;50.906;6.952;2023-04-06T05:04:22;2.00;97.10
14755;DHT22;7469;50.906;6.952;2023-04-06T05:07:01;2.00;97.20
14755;DHT22;7469;50.906;6.952;2023-04-06T05:09:29;2.00;97.30
14755;DHT22;7469;50.906;6.952;2023-04-06T05:11:58;2.00;97.50
14755;DHT22;7469;50.906;6.952;2023-04-06T05:14:26;2.00;97.70
14755;DHT22;7469;50.906;6.952;2023-04-06T05:16:55;2.00;97.80
14755;DHT22;7469;50.906;6.952;2023-04-06T05:19:23;2.00;97.80
14755;DHT22;7469;50.906;6.952;2023-04-06T05:21:52;2.00;97.90
14755;DHT22;7469;50.906;6.952;2023-04-06T05:24:21;2.10;98.00
14755;DHT22;7469;50.906;6.952;2023-04-06T05:26:49;2.10;98.10
14755;DHT22;7469;50.906;6.952;2023-04-06T05:29:19;2.10;98.10
14755;DHT22;7469;50.906;6.952;2023-04-06T05:31:47;2.20;98.00
14755;DHT22;7469;50.906;6.952;2023-04-06T05:34:16;2.20;98.00
14755;DHT22;7469;50.906;6.952;2023-04-06T05:36:44;2.20;98.00
14755;DHT22;7469;50.906;6.952;2023-04-06T05:39:14;2.30;98.00
14755;DHT22;7469;50.906;6.952;2023-04-06T05:41:42;2.40;97.90
14755;DHT22;7469;50.906;6.952;2023-04-06T05:44:10;2.40;97.80
14755;DHT22;7469;50.906;6.952;2023-04-06T05:46:40;2.40;97.70
14755;DHT22;7469;50.906;6.952;2023-04-06T05:49:08;2.50;97.60
14755;DHT22;7469;50.906;6.952;2023-04-06T05:51:37;2.50;97.90
14755;DHT22;7469;50.906;6.952;2023-04-06T05:54:05;2.60;97.60
14755;DHT22;7469;50.906;6.952;2023-04-06T05:56:37;2.60;97.50
14755;DHT22;7469;50.906;6.952;2023-04-06T05:59:05;2.60;97.40
14755;DHT22;7469;50.906;6.952;2023-04-06T06:01:34;2.70;97.50
14755;DHT22;7469;50.906;6.952;2023-04-06T06:04:02;2.80;97.40
14755;DHT22;7469;50.906;6.952;2023-04-06T06:06:30;2.80;97.50
14755;DHT22;7469;50.906;6.952;2023-04-06T06:08:58;2.80;97.50
14755;DHT22;7469;50.906;6.952;2023-04-06T06:11:27;2.90;97.60
14755;DHT22;7469;50.906;6.952;2023-04-06T06:13:57;2.90;97.60
14755;DHT22;7469;50.906;6.952;2023-04-06T06:16:25;3.00;97.60
14755;DHT22;7469;50.906;6.952;2023-04-06T06:18:53;3.00;97.50
14755;DHT22;7469;50.906;6.952;2023-04-06T06:21:21;3.10;97.50
14755;DHT22;7469;50.906;6.952;2023-04-06T06:23:49;3.10;97.60
14755;DHT22;7469;50.906;6.952;2023-04-06T06:26:17;3.20;97.60
14755;DHT22;7469;50.906;6.952;2023-04-06T06:28:45;3.20;97.60
14755;DHT22;7469;50.906;6.952;2023-04-06T06:31:15;3.30;97.70
14755;DHT22;7469;50.906;6.952;2023-04-06T06:33:43;3.30;97.70
14755;DHT22;7469;50.906;6.952;2023-04-06T06:36:11;3.40;97.60
14755;DHT22;7469;50.906;6.952;2023-04-06T06:38:39;3.50;97.60
14755;DHT22;7469;50.906;6.952;2023-04-06T06:41:07;3.50;97.50
14755;DHT22;7469;50.906;6.952;2023-04-06T06:43:36;3.60;97.50
14755;DHT22;7469;50.906;6.952;2023-04-06T06:46:04;3.70;97.50
14755;DHT22;7469;50.906;6.952;2023-04-06T06:48:34;3.70;97.40
14755;DHT22;7469;50.906;6.952;2023-04-06T06:51:03;3.80;97.20
14755;DHT22;7469;50.906;6.952;2023-04-06T06:53:31;3.90;97.10
14755;DHT22;7469;50.906;6.952;2023-04-06T06:55:59;4.00;97.00
14755;DHT22;7469;50.906;6.952;2023-04-06T06:58:27;4.10;96.90
14755;DHT22;7469;50.906;6.952;2023-04-06T07:00:56;4.20;96.80
14755;DHT22;7469;50.906;6.952;2023-04-06T07:03:25;4.30;96.80
14755;DHT22;7469;50.906;6.952;2023-04-06T07:05:55;4.30;96.60
14755;DHT22;7469;50.906;6.952;2023-04-06T07:08:24;4.40;96.60
14755;DHT22;7469;50.906;6.952;2023-04-06T07:10:53;4.50;96.40
14755;DHT22;7469;50.906;6.952;2023-04-06T07:13:23;4.60;96.30
14755;DHT22;7469;50.906;6.952;2023-04-06T07:15:51;4.70;96.10
14755;DHT22;7469;50.906;6.952;2023-04-06T07:18:19;4.90;95.90
14755;DHT22;7469;50.906;6.952;2023-04-06T07:20:48;5.00;95.70
14755;DHT22;7469;50.906;6.952;2023-04-06T07:23:17;5.10;95.50
14755;DHT22;7469;50.906;6.952;2023-04-06T07:25:45;5.30;95.30
14755;DHT22;7469;50.906;6.952;2023-04-06T07:28:13;5.50;95.00
14755;DHT22;7469;50.906;6.952;2023-04-06T07:30:42;5.80;94.60
14755;DHT22;7469;50.906;6.952;2023-04-06T07:33:10;6.10;94.10
14755;DHT22;7469;50.906;6.952;2023-04-06T07:35:39;6.50;93.60
14755;DHT22;7469;50.906;6.952;2023-04-06T07:38:07;6.80;93.10
14755;DHT22;7469;50.906;6.952;2023-04-06T07:40:36;7.00;92.40
14755;DHT22;7469;50.906;6.952;2023-04-06T07:43:07;7.20;91.90
14755;DHT22;7469;50.906;6.952;2023-04-06T07:45:35;7.40;91.30
14755;DHT22;7469;50.906;6.952;2023-04-06T07:48:04;7.60;90.90
14755;DHT22;7469;50.906;6.952;2023-04-06T07:50:32;7.70;90.50
14755;DHT22;7469;50.906;6.952;2023-04-06T07:53:00;7.90;90.20
14755;DHT22;7469;50.906;6.952;2023-04-06T07:55:29;8.10;89.70
14755;DHT22;7469;50.906;6.952;2023-04-06T07:57:59;8.30;88.80
14755;DHT22;7469;50.906;6.952;2023-04-06T08:00:27;8.50;87.70
14755;DHT22;7469;50.906;6.952;2023-04-06T08:02:55;8.60;86.90
14755;DHT22;7469;50.906;6.952;2023-04-06T08:05:24;8.60;86.10
14755;DHT22;7469;50.906;6.952;2023-04-06T08:07:52;8.70;85.60
14755;DHT22;7469;50.906;6.952;2023-04-06T08:10:20;8.80;85.20
14755;DHT22;7469;50.906;6.952;2023-04-06T08:12:49;8.90;84.60
14755;DHT22;7469;50.906;6.952;2023-04-06T08:15:18;9.10;84.00
14755;DHT22;7469;50.906;6.952;2023-04-06T08:17:46;9.30;83.50
14755;DHT22;7469;50.906;6.952;2023-04-06T08:20:15;9.60;82.60
14755;DHT22;7469;50.906;6.952;2023-04-06T08:22:43;9.80;81.70
14755;DHT22;7469;50.906;6.952;2023-04-06T08:25:12;9.90;80.70
14755;DHT22;7469;50.906;6.952;2023-04-06T08:27:40;10.00;79.70
14755;DHT22;7469;50.906;6.952;2023-04-06T08:30:09;10.00;79.00
14755;DHT22;7469;50.906;6.952;2023-04-06T08:32:39;10.10;78.50
14755;DHT22;7469;50.906;6.952;2023-04-06T08:35:09;10.30;77.60
14755;DHT22;7469;50.906;6.952;2023-04-06T08:37:38;10.40;76.50
14755;DHT22;7469;50.906;6.952;2023-04-06T08:40:07;10.60;75.80
14755;DHT22;7469;50.906;6.952;2023-04-06T08:42:40;10.70;75.10
14755;DHT22;7469;50.906;6.952;2023-04-06T08:45:09;10.80;74.20
14755;DHT22;7469;50.906;6.952;2023-04-06T08:47:39;11.00;73.50
14755;DHT22;7469;50.906;6.952;2023-04-06T08:50:09;11.20;72.70
14755;DHT22;7469;50.906;6.952;2023-04-06T08:52:38;11.30;71.60
14755;DHT22;7469;50.906;6.952;2023-04-06T08:55:07;11.50;70.60
14755;DHT22;7469;50.906;6.952;2023-04-06T08:57:36;11.70;69.70
14755;DHT22;7469;50.906;6.952;2023-04-06T09:00:06;11.90;68.30
14755;DHT22;7469;50.906;6.952;2023-04-06T09:02:41;12.10;67.10
14755;DHT22;7469;50.906;6.952;2023-04-06T09:05:10;12.30;66.40
14755;DHT22;7469;50.906;6.952;2023-04-06T09:07:38;12.50;65.20
14755;DHT22;7469;50.906;6.952;2023-04-06T09:10:07;12.60;64.10
14755;DHT22;7469;50.906;6.952;2023-04-06T09:12:36;12.80;63.50
14755;DHT22;7469;50.906;6.952;2023-04-06T09:15:04;13.10;62.70
14755;DHT22;7469;50.906;6.952;2023-04-06T09:17:33;13.40;61.40
14755;DHT22;7469;50.906;6.952;2023-04-06T09:20:03;13.70;60.00
14755;DHT22;7469;50.906;6.952;2023-04-06T09:22:37;14.00;58.70
14755;DHT22;7469;50.906;6.952;2023-04-06T09:25:08;14.20;57.60
14755;DHT22;7469;50.906;6.952;2023-04-06T09:27:37;14.30;56.40
14755;DHT22;7469;50.906;6.952;2023-04-06T09:30:07;14.40;55.30
14755;DHT22;7469;50.906;6.952;2023-04-06T09:32:45;14.40;54.40
14755;DHT22;7469;50.906;6.952;2023-04-06T09:35:15;14.70;54.30
14755;DHT22;7469;50.906;6.952;2023-04-06T09:37:43;15.00;53.50
14755;DHT22;7469;50.906;6.952;2023-04-06T09:40:13;15.30;53.10
14755;DHT22;7469;50.906;6.952;2023-04-06T09:42:42;15.50;51.40
14755;DHT22;7469;50.906;6.952;2023-04-06T09:45:10;15.70;50.20
14755;DHT22;7469;50.906;6.952;2023-04-06T09:47:40;15.90;49.80
14755;DHT22;7469;50.906;6.952;2023-04-06T09:50:11;16.40;49.40
14755;DHT22;7469;50.906;6.952;2023-04-06T09:52:47;17.30;47.90
14755;DHT22;7469;50.906;6.952;2023-04-06T09:55:22;18.20;45.40
14755;DHT22;7469;50.906;6.952;2023-04-06T09:57:57;19.00;42.40
14755;DHT22;7469;50.906;6.952;2023-04-06T10:00:29;19.70;40.10
14755;DHT22;7469;50.906;6.952;2023-04-06T10:03:02;20.60;37.70
14755;DHT22;7469;50.906;6.952;2023-04-06T10:05:39;21.40;34.50
14755;DHT22;7469;50.906;6.952;2023-04-06T10:08:11;21.90;31.50
14755;DHT22;7469;50.906;6.952;2023-04-06T10:10:41;22.50;29.70
14755;DHT22;7469;50.906;6.952;2023-04-06T10:13:11;23.20;27.90
14755;DHT22;7469;50.906;6.952;2023-04-06T10:15:39;23.80;26.40
14755;DHT22;7469;50.906;6.952;2023-04-06T10:18:08;24.20;25.00
14755;DHT22;7469;50.906;6.952;2023-04-06T10:20:39;24.30;24.20
14755;DHT22;7469;50.906;6.952;2023-04-06T10:23:13;24.20;23.20
14755;DHT22;7469;50.906;6.952;2023-04-06T10:25:52;24.30;22.70
14755;DHT22;7469;50.906;6.952;2023-04-06T10:28:21;24.40;22.10
14755;DHT22;7469;50.906;6.952;2023-04-06T10:30:49;24.10;21.40
14755;DHT22;7469;50.906;6.952;2023-04-06T10:33:24;23.80;21.20
14755;DHT22;7469;50.906;6.952;2023-04-06T10:35:52;23.50;21.20
14755;DHT22;7469;50.906;6.952;2023-04-06T10:38:33;23.30;21.20
14755;DHT22;7469;50.906;6.952;2023-04-06T10:41:05;22.90;21.00
14755;DHT22;7469;50.906;6.952;2023-04-06T10:43:34;22.30;21.40
14755;DHT22;7469;50.906;6.952;2023-04-06T10:46:04;21.90;21.90
14755;DHT22;7469;50.906;6.952;2023-04-06T10:48:40;21.60;22.00
14755;DHT22;7469;50.906;6.952;2023-04-06T10:51:10;21.40;21.90
14755;DHT22;7469;50.906;6.952;2023-04-06T10:53:41;21.20;22.00
14755;DHT22;7469;50.906;6.952;2023-04-06T10:56:10;20.90;22.60
14755;DHT22;7469;50.906;6.952;2023-04-06T10:58:44;20.70;22.30
14755;DHT22;7469;50.906;6.952;2023-04-06T11:01:15;20.20;22.40
14755;DHT22;7469;50.906;6.952;2023-04-06T11:03:44;19.80;22.70
14755;DHT22;7469;50.906;6.952;2023-04-06T11:06:18;19.40;23.20
14755;DHT22;7469;50.906;6.952;2023-04-06T11:08:48;18.90;23.40
14755;DHT22;7469;50.906;6.952;2023-04-06T11:11:17;18.50;23.80
14755;DHT22;7469;50.906;6.952;2023-04-06T11:13:48;18.20;24.10
14755;DHT22;7469;50.906;6.952;2023-04-06T11:16:17;18.00;24.40
14755;DHT22;7469;50.906;6.952;2023-04-06T11:18:54;18.00;24.30
14755;DHT22;7469;50.906;6.952;2023-04-06T11:21:34;17.90;24.10
14755;DHT22;7469;50.906;6.952;2023-04-06T11:24:09;17.80;24.00
14755;DHT22;7469;50.906;6.952;2023-04-06T11:26:41;17.70;24.10
14755;DHT22;7469;50.906;6.952;2023-04-06T11:29:11;17.70;24.30
14755;DHT22;7469;50.906;6.952;2023-04-06T11:31:41;17.70;24.20
14755;DHT22;7469;50.906;6.952;2023-04-06T11:34:13;17.70;24.20
14755;DHT22;7469;50.906;6.952;2023-04-06T11:36:44;17.70;24.10
14755;DHT22;7469;50.906;6.952;2023-04-06T11:39:20;17.80;24.00
14755;DHT22;7469;50.906;6.952;2023-04-06T11:41:48;17.80;24.10
14755;DHT22;7469;50.906;6.952;2023-04-06T11:44:31;17.80;24.00
14755;DHT22;7469;50.906;6.952;2023-04-06T11:47:00;17.80;24.30
14755;DHT22;7469;50.906;6.952;2023-04-06T11:49:29;17.60;24.30
14755;DHT22;7469;50.906;6.952;2023-04-06T11:51:58;17.50;24.70
14755;DHT22;7469;50.906;6.952;2023-04-06T11:54:32;17.50;24.90
14755;DHT22;7469;50.906;6.952;2023-04-06T11:57:01;17.60;25.00
14755;DHT22;7469;50.906;6.952;2023-04-06T11:59:29;17.50;24.80
14755;DHT22;7469;50.906;6.952;2023-04-06T12:01:58;17.40;24.90
14755;DHT22;7469;50.906;6.952;2023-04-06T12:04:26;17.40;25.10
14755;DHT22;7469;50.906;6.952;2023-04-06T12:06:54;17.40;25.20
14755;DHT22;7469;50.906;6.952;2023-04-06T12:09:22;17.40;25.30
14755;DHT22;7469;50.906;6.952;2023-04-06T12:11:53;17.50;25.40
14755;DHT22;7469;50.906;6.952;2023-04-06T12:14:21;17.60;25.50
14755;DHT22;7469;50.906;6.952;2023-04-06T12:16:49;17.70;25.30
14755;DHT22;7469;50.906;6.952;2023-04-06T12:19:18;17.60;24.90
14755;DHT22;7469;50.906;6.952;2023-04-06T12:21:47;17.60;24.90
14755;DHT22;7469;50.906;6.952;2023-04-06T12:24:15;17.70;24.90
14755;DHT22;7469;50.906;6.952;2023-04-06T12:26:44;17.70;24.80
14755;DHT22;7469;50.906;6.952;2023-04-06T12:29:15;17.80;24.70
14755;DHT22;7469;50.906;6.952;2023-04-06T12:31:43;17.70;24.50
14755;DHT22;7469;50.906;6.952;2023-04-06T12:34:12;17.60;24.50
14755;DHT22;7469;50.906;6.952;2023-04-06T12:36:40;17.60;24.70
14755;DHT22;7469;50.906;6.952;2023-04-06T12:39:08;17.50;24.60
14755;DHT22;7469;50.906;6.952;2023-04-06T12:41:36;17.40;24.80
14755;DHT22;7469;50.906;6.952;2023-04-06T12:44:07;17.30;25.10
14755;DHT22;7469;50.906;6.952;2023-04-06T12:46:36;17.30;25.30
14755;DHT22;7469;50.906;6.952;2023-04-06T12:49:04;17.30;25.40
14755;DHT22;7469;50.906;6.952;2023-04-06T12:51:32;17.30;25.30
14755;DHT22;7469;50.906;6.952;2023-04-06T12:54:01;17.40;25.40
14755;DHT22;7469;50.906;6.952;2023-04-06T12:56:29;17.30;25.30
14755;DHT22;7469;50.906;6.952;2023-04-06T12:58:57;17.40;25.60
14755;DHT22;7469;50.906;6.952;2023-04-06T13:01:25;17.40;25.70
14755;DHT22;7469;50.906;6.952;2023-04-06T13:03:56;17.40;25.80
14755;DHT22;7469;50.906;6.952;2023-04-06T13:06:24;17.40;25.80
14755;DHT22;7469;50.906;6.952;2023-04-06T13:08:54;17.20;25.90
14755;DHT22;7469;50.906;6.952;2023-04-06T13:11:23;17.20;26.20
14755;DHT22;7469;50.906;6.952;2023-04-06T13:13:54;17.00;26.40
14755;DHT22;7469;50.906;6.952;2023-04-06T13:16:22;17.00;26.70
14755;DHT22;7469;50.906;6.952;2023-04-06T13:18:50;16.90;27.00
14755;DHT22;7469;50.906;6.952;2023-04-06T13:21:20;16.80;27.30
14755;DHT22;7469;50.906;6.952;2023-04-06T13:23:48;16.60;27.60
14755;DHT22;7469;50.906;6.952;2023-04-06T13:26:16;16.50;27.90
14755;DHT22;7469;50.906;6.952;2023-04-06T13:28:45;16.30;28.20
14755;DHT22;7469;50.906;6.952;2023-04-06T13:31:13;16.20;28.50
14755;DHT22;7469;50.906;6.952;2023-04-06T13:33:41;15.90;28.70
14755;DHT22;7469;50.906;6.952;2023-04-06T13:36:09;15.70;29.00
14755;DHT22;7469;50.906;6.952;2023-04-06T13:38:38;15.50;29.10
14755;DHT22;7469;50.906;6.952;2023-04-06T13:41:07;15.40;29.40
14755;DHT22;7469;50.906;6.952;2023-04-06T13:43:35;15.20;29.60
14755;DHT22;7469;50.906;6.952;2023-04-06T13:46:03;15.00;29.90
14755;DHT22;7469;50.906;6.952;2023-04-06T13:48:31;14.90;30.30
14755;DHT22;7469;50.906;6.952;2023-04-06T13:51:08;14.70;30.90
14755;DHT22;7469;50.906;6.952;2023-04-06T13:53:37;14.40;31.50
14755;DHT22;7469;50.906;6.952;2023-04-06T13:56:07;14.10;32.10
14755;DHT22;7469;50.906;6.952;2023-04-06T13:58:35;13.90;32.90
14755;DHT22;7469;50.906;6.952;2023-04-06T14:01:04;13.70;33.50
14755;DHT22;7469;50.906;6.952;2023-04-06T14:03:33;13.40;34.00
14755;DHT22;7469;50.906;6.952;2023-04-06T14:06:09;13.30;34.90
14755;DHT22;7469;50.906;6.952;2023-04-06T14:08:54;13.10;35.40
14755;DHT22;7469;50.906;6.952;2023-04-06T14:11:23;13.00;36.20
14755;DHT22;7469;50.906;6.952;2023-04-06T14:13:51;13.00;36.70
14755;DHT22;7469;50.906;6.952;2023-04-06T14:16:24;13.00;37.30
14755;DHT22;7469;50.906;6.952;2023-04-06T14:18:53;13.00;38.00
14755;DHT22;7469;50.906;6.952;2023-04-06T14:21:21;13.10;38.50
14755;DHT22;7469;50.906;6.952;2023-04-06T14:23:49;13.00;38.90
14755;DHT22;7469;50.906;6.952;2023-04-06T14:26:18;13.00;39.20
14755;DHT22;7469;50.906;6.952;2023-04-06T14:28:47;13.10;39.60
14755;DHT22;7469;50.906;6.952;2023-04-06T14:31:15;13.10;40.20
14755;DHT22;7469;50.906;6.952;2023-04-06T14:33:44;13.10;40.90
14755;DHT22;7469;50.906;6.952;2023-04-06T14:36:13;13.10;41.50
14755;DHT22;7469;50.906;6.952;2023-04-06T14:38:41;13.00;42.00
14755;DHT22;7469;50.906;6.952;2023-04-06T14:41:15;13.00;42.70
14755;DHT22;7469;50.906;6.952;2023-04-06T14:43:46;12.90;43.10
14755;DHT22;7469;50.906;6.952;2023-04-06T14:46:14;12.90;44.00
14755;DHT22;7469;50.906;6.952;2023-04-06T14:48:43;12.90;44.60
14755;DHT22;7469;50.906;6.952;2023-04-06T14:51:11;12.90;45.30
14755;DHT22;7469;50.906;6.952;2023-04-06T14:53:39;12.80;46.00
14755;DHT22;7469;50.906;6.952;2023-04-06T14:56:07;12.70;46.60
14755;DHT22;7469;50.906;6.952;2023-04-06T14:58:35;12.70;47.70
14755;DHT22;7469;50.906;6.952;2023-04-06T15:01:04;12.50;49.10
14755;DHT22;7469;50.906;6.952;2023-04-06T15:03:33;12.40;50.30
14755;DHT22;7469;50.906;6.952;2023-04-06T15:06:01;12.20;51.70
14755;DHT22;7469;50.906;6.952;2023-04-06T15:08:29;12.10;53.40
14755;DHT22;7469;50.906;6.952;2023-04-06T15:10:59;12.00;55.00
14755;DHT22;7469;50.906;6.952;2023-04-06T15:13:27;11.90;56.40
14755;DHT22;7469;50.906;6.952;2023-04-06T15:15:56;11.90;58.20
14755;DHT22;7469;50.906;6.952;2023-04-06T15:18:28;11.80;59.60
14755;DHT22;7469;50.906;6.952;2023-04-06T15:20:56;11.80;62.50
14755;DHT22;7469;50.906;6.952;2023-04-06T15:23:24;11.70;65.90
14755;DHT22;7469;50.906;6.952;2023-04-06T15:25:56;11.60;68.90
14755;DHT22;7469;50.906;6.952;2023-04-06T15:28:24;11.50;72.20
14755;DHT22;7469;50.906;6.952;2023-04-06T15:30:53;11.50;74.90
14755;DHT22;7469;50.906;6.952;2023-04-06T15:33:21;11.30;78.10
14755;DHT22;7469;50.906;6.952;2023-04-06T15:35:51;11.30;80.90
14755;DHT22;7469;50.906;6.952;2023-04-06T15:38:18;11.20;84.20
14755;DHT22;7469;50.906;6.952;2023-04-06T15:40:48;11.10;87.50
14755;DHT22;7469;50.906;6.952;2023-04-06T15:43:17;10.90;90.20
14755;DHT22;7469;50.906;6.952;2023-04-06T15:45:45;10.90;91.10
14755;DHT22;7469;50.906;6.952;2023-04-06T15:48:13;10.80;92.50
14755;DHT22;7469;50.906;6.952;2023-04-06T15:50:41;10.70;93.30
14755;DHT22;7469;50.906;6.952;2023-04-06T15:53:10;10.70;94.10
14755;DHT22;7469;50.906;6.952;2023-04-06T15:55:38;10.60;94.90
14755;DHT22;7469;50.906;6.952;2023-04-06T15:58:06;10.50;96.30
14755;DHT22;7469;50.906;6.952;2023-04-06T16:00:34;10.40;97.50
14755;DHT22;7469;50.906;6.952;2023-04-06T16:03:02;10.40;98.20
14755;DHT22;7469;50.906;6.952;2023-04-06T16:05:31;10.40;99.10
14755;DHT22;7469;50.906;6.952;2023-04-06T16:08:06;10.30;99.90